Time;durP1;ratioP1;P1;durP2;ratioP2;P2;SDS_P1;SDS_P2;PMS_P1;PMS_P2;Temp;Humidity;BMP_temperature;BMP_pressure;BME280_temperature;BME280_humidity;BME280_pressure;Samples;Min_cycle;Max_cycle;Signal;HPM_P1;HPM_P2
2021/06/26 00:05:05;;;;;;;16.60;10.90;;;17.10;99.90;;;;;;6700961;88;20242;-78
2021/06/26 00:15:10;;;;;;;17.35;10.88;;;17.00;99.90;;;;;;6701380;88;20715;-78
2021/06/26 00:25:11;;;;;;;19.45;11.75;;;17.00;99.90;;;;;;6702807;88;20197;-77
2021/06/26 00:35:13;;;;;;;20.62;12.13;;;17.10;99.90;;;;;;6701169;88;20227;-78
2021/06/26 00:45:15;;;;;;;19.98;12.52;;;17.00;99.90;;;;;;6700753;88;20669;-78
2021/06/26 00:55:17;;;;;;;19.33;11.43;;;17.20;99.90;;;;;;6700968;88;20556;-79
2021/06/26 01:05:18;;;;;;;16.08;10.18;;;17.10;99.90;;;;;;6718385;88;20415;-77
2021/06/26 01:15:18;;;;;;;17.42;10.27;;;16.70;99.90;;;;;;6719239;88;20186;-78
2021/06/26 01:25:21;;;;;;;17.07;10.60;;;16.40;99.90;;;;;;6717641;88;20225;-79
2021/06/26 01:35:22;;;;;;;14.15;10.77;;;16.20;99.90;;;;;;6716166;88;20528;-78
2021/06/26 01:45:23;;;;;;;16.60;10.70;;;16.10;99.90;;;;;;6715731;88;20320;-79
2021/06/26 01:55:24;;;;;;;17.48;10.88;;;16.20;99.90;;;;;;6714842;88;20193;-79
2021/06/26 02:05:25;;;;;;;18.77;10.48;;;16.20;99.90;;;;;;6713821;88;20711;-78
2021/06/26 02:15:25;;;;;;;16.37;11.12;;;15.90;99.90;;;;;;6702996;88;20217;-78
2021/06/26 02:25:26;;;;;;;17.15;10.75;;;15.60;99.90;;;;;;6704115;88;20232;-78
2021/06/26 02:45:30;;;;;;;19.75;11.32;;;15.30;99.90;;;;;;6744467;88;20273;-77
2021/06/26 02:55:30;;;;;;;18.17;11.57;;;15.60;99.90;;;;;;6742499;88;20246;-78
2021/06/26 03:05:31;;;;;;;16.45;10.48;;;15.20;99.90;;;;;;6740860;88;20193;-77
2021/06/26 03:15:32;;;;;;;16.27;10.95;;;15.10;99.90;;;;;;6733270;88;20202;-78
2021/06/26 03:25:33;;;;;;;16.85;10.48;;;14.90;99.90;;;;;;6745481;88;20313;-78
2021/06/26 03:35:33;;;;;;;15.88;11.05;;;14.80;99.90;;;;;;6739546;88;20525;-78
2021/06/26 03:45:34;;;;;;;20.42;10.90;;;14.90;99.90;;;;;;6738661;88;20180;-78
2021/06/26 03:55:34;;;;;;;15.48;10.82;;;14.80;99.90;;;;;;6738568;88;20608;-77
2021/06/26 04:05:35;;;;;;;18.37;11.07;;;14.70;99.90;;;;;;6738788;88;20685;-77
2021/06/26 04:15:36;;;;;;;16.25;11.07;;;14.70;99.90;;;;;;6735631;88;20193;-77
2021/06/26 04:25:36;;;;;;;15.05;10.55;;;14.70;99.90;;;;;;6738893;88;20216;-77
2021/06/26 04:35:37;;;;;;;17.35;10.63;;;14.80;99.90;;;;;;6738799;88;20177;-77
2021/06/26 04:45:38;;;;;;;16.30;10.60;;;14.90;99.90;;;;;;6735809;88;20198;-77
2021/06/26 04:55:38;;;;;;;17.20;10.68;;;15.00;99.90;;;;;;6738554;88;20754;-79
2021/06/26 05:05:39;;;;;;;18.17;11.40;;;15.10;99.90;;;;;;6741389;88;20831;-78
2021/06/26 05:15:41;;;;;;;17.92;11.40;;;15.20;99.90;;;;;;6740934;88;20206;-79
2021/06/26 05:25:42;;;;;;;18.60;11.20;;;15.10;99.90;;;;;;6740633;88;20276;-79
2021/06/26 05:35:43;;;;;;;20.85;12.88;;;15.10;99.90;;;;;;6751224;88;20222;-78
2021/06/26 05:45:44;;;;;;;19.73;11.90;;;15.30;99.90;;;;;;6748404;88;20190;-80
2021/06/26 05:55:56;;;;;;;19.70;12.02;;;15.60;99.90;;;;;;6753358;88;20201;-77
2021/06/26 06:05:57;;;;;;;18.55;11.18;;;16.00;99.90;;;;;;6736043;88;20237;-77
2021/06/26 06:15:58;;;;;;;18.37;11.25;;;16.80;99.90;;;;;;6740483;88;20648;-77
2021/06/26 06:25:58;;;;;;;17.73;11.27;;;17.50;99.90;;;;;;6739642;88;20198;-77
2021/06/26 06:36:00;;;;;;;15.27;10.05;;;18.00;99.90;;;;;;6745487;88;20283;-78
2021/06/26 06:46:05;;;;;;;15.57;10.23;;;18.20;99.90;;;;;;6743401;88;20194;-78
2021/06/26 06:56:05;;;;;;;15.00;10.07;;;18.80;99.90;;;;;;6744241;88;20207;-77
2021/06/26 07:06:06;;;;;;;12.88;9.85;;;19.60;99.90;;;;;;6740055;88;20207;-77
2021/06/26 07:16:07;;;;;;;15.77;9.57;;;20.50;99.90;;;;;;6740853;88;20313;-78
2021/06/26 07:26:07;;;;;;;17.35;10.52;;;21.00;99.90;;;;;;6741762;88;20204;-77
2021/06/26 07:36:08;;;;;;;19.48;9.80;;;21.30;99.90;;;;;;6740484;88;20443;-77
2021/06/26 07:46:08;;;;;;;16.90;10.97;;;22.20;99.90;;;;;;6733298;88;20189;-78
2021/06/26 07:56:09;;;;;;;20.50;11.95;;;22.90;99.90;;;;;;6734093;88;20210;-78
2021/06/26 08:06:10;;;;;;;16.35;10.82;;;22.80;99.90;;;;;;6737462;88;20271;-78
2021/06/26 08:16:10;;;;;;;16.37;11.07;;;23.50;99.90;;;;;;6739432;88;20301;-78
2021/06/26 08:26:11;;;;;;;16.33;11.00;;;23.70;99.90;;;;;;6735415;88;20224;-78
2021/06/26 08:36:12;;;;;;;17.13;11.00;;;23.80;99.90;;;;;;6737216;88;20252;-78
2021/06/26 08:46:13;;;;;;;14.77;9.88;;;23.90;99.90;;;;;;6735145;88;20202;-78
2021/06/26 08:56:14;;;;;;;12.18;8.25;;;24.70;99.90;;;;;;6739625;88;20219;-77
2021/06/26 09:06:14;;;;;;;13.38;8.48;;;25.30;98.30;;;;;;6733875;88;20649;-77
2021/06/26 09:16:16;;;;;;;14.30;8.80;;;25.90;97.80;;;;;;6734323;88;20201;-84
2021/06/26 09:36:23;;;;;;;;;;;26.10;84.40;;;;;;6743920;88;20232;-78
2021/06/26 09:46:23;;;;;;;8.75;4.97;;;25.60;90.50;;;;;;6721387;88;20042;-78
2021/06/26 09:56:43;;;;;;;6.15;4.70;;;26.50;81.10;;;;;;6719444;88;20182;-78
2021/06/26 10:06:44;;;;;;;4.95;3.92;;;26.20;79.50;;;;;;6720564;88;20193;-78
2021/06/26 10:16:45;;;;;;;4.70;3.30;;;27.70;77.80;;;;;;6725858;88;20180;-79
2021/06/26 10:26:45;;;;;;;8.18;4.18;;;26.80;72.90;;;;;;6708668;88;20195;-78
2021/06/26 10:36:52;;;;;;;5.37;3.80;;;28.00;72.20;;;;;;6717073;88;20190;-78
2021/06/26 10:46:52;;;;;;;7.05;3.60;;;29.50;70.20;;;;;;6717411;88;20230;-78
2021/06/26 10:57:05;;;;;;;5.25;3.90;;;27.50;72.10;;;;;;6709352;88;20216;-78
2021/06/26 11:07:08;;;;;;;6.37;4.53;;;28.40;72.30;;;;;;6720681;88;20185;-78
2021/06/26 11:17:08;;;;;;;;;;;28.40;71.10;;;;;;6722216;88;20201;-79
2021/06/26 11:27:13;;;;;;;5.10;4.00;;;30.80;67.50;;;;;;6725982;88;20072;-78
2021/06/26 11:37:13;;;;;;;6.93;3.80;;;30.20;66.80;;;;;;6727035;88;20231;-78
2021/06/26 11:47:15;;;;;;;5.62;3.90;;;31.10;65.50;;;;;;6730075;88;20613;-78
2021/06/26 11:57:15;;;;;;;7.40;4.07;;;29.90;65.20;;;;;;6718130;88;20240;-78
2021/06/26 12:07:16;;;;;;;5.28;3.97;;;29.10;67.00;;;;;;6715023;88;20728;-78
2021/06/26 12:17:19;;;;;;;7.62;3.95;;;29.40;66.80;;;;;;6715455;88;20196;-78
2021/06/26 12:27:23;;;;;;;6.37;3.92;;;31.10;64.50;;;;;;6712604;88;20307;-78
2021/06/26 12:37:39;;;;;;;6.30;4.03;;;28.10;66.60;;;;;;6712164;88;20685;-77
2021/06/26 12:47:40;;;;;;;6.55;4.12;;;28.00;68.30;;;;;;6710474;88;20561;-78
2021/06/26 12:57:40;;;;;;;6.30;4.00;;;29.80;67.20;;;;;;6725467;88;20201;-78
2021/06/26 13:07:41;;;;;;;5.12;3.90;;;29.90;64.60;;;;;;6716478;88;20304;-77
2021/06/26 13:17:42;;;;;;;5.10;3.80;;;30.00;65.10;;;;;;6710414;88;20192;-78
2021/06/26 13:27:46;;;;;;;4.20;3.60;;;31.50;63.80;;;;;;6718709;88;20499;-78
2021/06/26 13:37:46;;;;;;;5.40;3.95;;;31.00;61.20;;;;;;6720793;88;20183;-77
2021/06/26 13:47:47;;;;;;;4.12;3.50;;;29.70;64.50;;;;;;6721694;88;20260;-77
2021/06/26 13:57:47;;;;;;;6.18;3.55;;;29.40;64.60;;;;;;6721167;88;20190;-77
2021/06/26 14:07:48;;;;;;;4.72;3.92;;;29.90;64.20;;;;;;6718398;88;20235;-77
2021/06/26 14:17:49;;;;;;;4.35;3.40;;;28.50;64.50;;;;;;6715972;88;20303;-78
2021/06/26 14:27:49;;;;;;;5.03;3.78;;;29.30;63.50;;;;;;6712253;88;20296;-77
2021/06/26 14:37:50;;;;;;;9.07;4.45;;;28.40;68.00;;;;;;6714932;88;20601;-78
2021/06/26 14:47:50;;;;;;;4.72;3.75;;;28.20;67.80;;;;;;6710105;88;20806;-77
2021/06/26 14:57:51;;;;;;;4.75;3.70;;;28.30;65.30;;;;;;6713902;88;20229;-77
2021/06/26 15:07:52;;;;;;;10.25;3.78;;;28.60;66.10;;;;;;6719081;88;20206;-77
2021/06/26 15:17:52;;;;;;;3.80;3.40;;;29.00;64.10;;;;;;6721220;88;20214;-77
2021/06/26 15:27:53;;;;;;;4.60;3.50;;;29.90;63.50;;;;;;6740118;77;20264;-78
2021/06/26 15:37:54;;;;;;;4.68;3.28;;;30.70;62.00;;;;;;6754133;88;20215;-77
2021/06/26 15:47:54;;;;;;;6.28;3.40;;;29.10;63.10;;;;;;6753877;88;20219;-77
2021/06/26 15:57:55;;;;;;;4.15;3.40;;;30.40;63.40;;;;;;6744545;88;20193;-77
2021/06/26 16:07:55;;;;;;;3.83;3.30;;;31.10;61.80;;;;;;6754784;88;20632;-77
2021/06/26 16:17:56;;;;;;;5.45;3.30;;;31.00;60.40;;;;;;6745601;88;20302;-77
2021/06/26 16:27:56;;;;;;;6.05;3.80;;;29.90;62.20;;;;;;6750957;88;20263;-79
2021/06/26 16:38:04;;;;;;;4.90;3.50;;;29.20;63.50;;;;;;6755899;88;20715;-76
2021/06/26 16:48:05;;;;;;;5.47;3.30;;;28.50;64.70;;;;;;6758301;88;21069;-78
2021/06/26 16:58:06;;;;;;;5.43;3.50;;;28.80;64.00;;;;;;6758458;88;20208;-79
2021/06/26 17:08:06;;;;;;;7.97;5.43;;;28.40;63.00;;;;;;6756234;88;20376;-77
2021/06/26 17:18:07;;;;;;;4.95;4.10;;;28.30;65.00;;;;;;6752833;88;20212;-77
2021/06/26 17:28:07;;;;;;;5.10;3.62;;;28.60;64.30;;;;;;6753698;88;20197;-77
2021/06/26 17:38:08;;;;;;;4.95;3.92;;;28.50;65.50;;;;;;6754593;88;20196;-77
2021/06/26 17:48:09;;;;;;;5.18;4.12;;;28.10;66.30;;;;;;6750059;88;20176;-77
2021/06/26 17:58:09;;;;;;;5.53;4.03;;;27.30;68.20;;;;;;6762620;88;20258;-77
2021/06/26 18:08:10;;;;;;;5.45;4.00;;;26.90;69.80;;;;;;6750123;88;20662;-77
2021/06/26 18:18:10;;;;;;;6.47;4.47;;;26.50;71.20;;;;;;6752321;88;20203;-77
2021/06/26 18:28:11;;;;;;;5.93;4.30;;;25.90;70.80;;;;;;6753909;88;20811;-76
2021/06/26 18:38:12;;;;;;;5.32;4.07;;;25.60;72.70;;;;;;6751996;88;20208;-78
2021/06/26 18:48:13;;;;;;;5.28;3.95;;;25.40;74.60;;;;;;6752797;88;20189;-77
2021/06/26 18:58:13;;;;;;;5.97;4.40;;;25.30;74.00;;;;;;6738493;88;20209;-75
2021/06/26 19:08:14;;;;;;;6.47;4.70;;;24.80;76.80;;;;;;6743471;88;20231;-74
2021/06/26 19:18:15;;;;;;;8.82;5.32;;;24.30;79.40;;;;;;6743321;88;20192;-75
2021/06/26 19:28:22;;;;;;;9.73;5.75;;;23.90;83.10;;;;;;6741779;88;20243;-76
2021/06/26 19:38:25;;;;;;;7.87;5.85;;;23.70;85.00;;;;;;6734475;88;20643;-76
2021/06/26 19:48:26;;;;;;;7.30;5.40;;;23.40;89.60;;;;;;6744989;88;20189;-76
2021/06/26 19:58:30;;;;;;;10.10;6.00;;;23.10;90.90;;;;;;6742012;88;20238;-75
2021/06/26 20:08:30;;;;;;;9.45;6.50;;;22.90;92.20;;;;;;6742176;88;20192;-77
2021/06/26 20:18:31;;;;;;;9.70;7.12;;;23.00;92.50;;;;;;6740768;88;20325;-76
2021/06/26 20:28:31;;;;;;;11.70;8.00;;;22.80;94.10;;;;;;6741356;88;20696;-76
2021/06/26 20:38:32;;;;;;;9.55;6.97;;;22.30;97.10;;;;;;6747147;88;20252;-77
2021/06/26 20:48:33;;;;;;;11.57;7.45;;;22.00;99.00;;;;;;6744295;88;20193;-76
2021/06/26 20:58:33;;;;;;;12.60;7.80;;;22.00;99.70;;;;;;6752512;88;20286;-81
2021/06/26 21:08:34;;;;;;;7.90;6.68;;;21.80;99.90;;;;;;6757387;88;20210;-80
2021/06/26 21:18:34;;;;;;;7.40;5.18;;;21.30;99.90;;;;;;6756831;88;20213;-79
2021/06/26 21:28:35;;;;;;;7.97;5.87;;;21.00;99.90;;;;;;6753910;88;20207;-78
2021/06/26 21:38:35;;;;;;;11.57;7.10;;;20.90;99.90;;;;;;6756562;88;20680;-78
2021/06/26 21:48:36;;;;;;;7.68;5.70;;;20.60;99.90;;;;;;6754998;88;20219;-78
2021/06/26 21:58:37;;;;;;;8.47;6.17;;;20.60;99.90;;;;;;6752245;88;20207;-77
2021/06/26 22:08:38;;;;;;;9.20;6.80;;;20.40;99.90;;;;;;6744476;88;20640;-78
2021/06/26 22:18:39;;;;;;;9.40;6.47;;;20.20;99.90;;;;;;6751036;88;20750;-77
2021/06/26 22:28:41;;;;;;;9.90;6.80;;;20.10;99.90;;;;;;6755525;88;20354;-78
2021/06/26 22:38:41;;;;;;;10.32;6.90;;;20.00;99.90;;;;;;6755497;88;20254;-78
2021/06/26 22:48:42;;;;;;;9.02;6.60;;;20.10;99.90;;;;;;6752330;88;20285;-79
2021/06/26 22:58:43;;;;;;;9.40;6.53;;;19.80;99.90;;;;;;6752494;88;20194;-78
2021/06/26 23:08:43;;;;;;;9.50;6.50;;;19.50;99.90;;;;;;6762114;88;20176;-79
2021/06/26 23:18:44;;;;;;;10.13;7.30;;;19.50;99.90;;;;;;6750547;88;20184;-77
2021/06/26 23:28:44;;;;;;;8.75;7.35;;;19.30;99.90;;;;;;6765624;88;20214;-77
2021/06/26 23:38:45;;;;;;;10.30;7.25;;;19.60;99.90;;;;;;6755432;88;20176;-77
2021/06/26 23:48:45;;;;;;;10.00;7.40;;;19.40;99.90;;;;;;6748743;88;20264;-77
2021/06/26 23:58:49;;;;;;;8.93;6.82;;;19.10;99.90;;;;;;6754161;88;20223;-77
